| time (UTC) | temp F | wind direction | speed MPH | gust MPH | rain 1hr in | rain 24hr in | rain mn in | humidity % | barometer mb |
| 20260508020003 | 84 | 0.0 | 0.0 | 0.00 | 0.00 | 0.00 | 13 | 1007.2 | |
| 20260508014503 | 85 | 0.0 | 0.0 | 0.00 | 0.00 | 0.00 | 13 | 1006.9 | |
| 20260508013002 | 86 | 0.0 | 0.0 | 0.00 | 0.00 | 0.00 | 13 | 1006.7 | |
| 20260508011502 | 87 | 0.0 | 0.0 | 0.00 | 0.00 | 0.00 | 13 | 1006.7 | |
| 20260508010100 | 88 | 0.0 | 0.0 | 0.00 | 0.00 | 0.00 | 12 | 1006.7 | |
| 20260508010002 | 88 | 0.0 | 0.0 | 0.00 | 0.00 | 0.00 | 12 | 1006.7 | |
| 20260508004602 | 88 | 0.0 | 0.0 | 0.00 | 0.00 | 0.00 | 12 | 1006.5 | |
| 20260508003108 | 89 | 0.0 | 0.0 | 0.00 | 0.00 | 0.00 | 12 | 1006.5 | |
| 20260508001600 | 88 | 0.0 | 0.0 | 0.00 | 0.00 | 0.00 | 11 | 1006.3 | |
| 20260508000100 | 86 | 0.0 | 0.0 | 0.00 | 0.00 | 0.00 | 13 | 1006.4 | |
| 20260507234556 | 88 | 0.0 | 0.0 | 0.00 | 0.00 | 0.00 | 12 | 1006.4 | |
| 20260507233055 | 88 | 0.0 | 0.0 | 0.00 | 0.00 | 0.00 | 11 | 1006.5 | |
| 20260507231554 | 88 | 0.0 | 0.0 | 0.00 | 0.00 | 0.00 | 11 | 1006.7 | |
| 20260507230052 | 91 | 0.0 | 0.0 | 0.00 | 0.00 | 0.00 | 11 | 1006.6 | |
| 20260507224608 | 90 | 0.0 | 0.0 | 0.00 | 0.00 | 0.00 | 12 | 1006.7 | |
| 20260507223054 | 89 | 0.0 | 0.0 | 0.00 | 0.00 | 0.00 | 11 | 1006.8 | |
| 20260507221545 | 90 | 0.0 | 0.0 | 0.00 | 0.00 | 0.00 | 11 | 1007.0 | |
| 20260507220042 | 91 | 0.0 | 0.0 | 0.00 | 0.00 | 0.00 | 11 | 1007.2 | |
| 20260507214539 | 90 | 0.0 | 0.0 | 0.00 | 0.00 | 0.00 | 12 | 1007.5 | |
| 20260507213040 | 86 | 0.0 | 0.0 | 0.00 | 0.00 | 0.00 | 12 | 1007.8 | |
| 20260507211541 | 87 | 0.0 | 0.0 | 0.00 | 0.00 | 0.00 | 12 | 1007.9 | |
| 20260507210035 | 86 | 0.0 | 0.0 | 0.00 | 0.00 | 0.00 | 13 | 1008.3 | |
| 20260507204530 | 87 | 0.0 | 0.0 | 0.00 | 0.00 | 0.00 | 12 | 1008.3 | |
| 20260507203026 | 88 | 0.0 | 0.0 | 0.00 | 0.00 | 0.00 | 13 | 1008.4 | |
| 20260507201527 | 89 | 0.0 | 0.0 | 0.00 | 0.00 | 0.00 | 12 | 1008.6 | |
| 20260507200021 | 87 | 0.0 | 0.0 | 0.00 | 0.00 | 0.00 | 13 | 1008.9 | |
| 20260507194519 | 87 | 0.0 | 0.0 | 0.00 | 0.00 | 0.00 | 13 | 1009.0 | |
| 20260507193018 | 86 | 0.0 | 0.0 | 0.00 | 0.00 | 0.00 | 14 | 1009.2 | |
| 20260507191518 | 88 | 0.0 | 0.0 | 0.00 | 0.00 | 0.00 | 14 | 1009.3 | |
| 20260507190013 | 87 | 0.0 | 0.0 | 0.00 | 0.00 | 0.00 | 13 | 1009.5 | |
| 20260507184513 | 87 | 0.0 | 0.0 | 0.00 | 0.00 | 0.00 | 15 | 1009.7 | |
| 20260507183006 | 85 | 0.0 | 0.0 | 0.00 | 0.00 | 0.00 | 17 | 1010.0 | |
| 20260507181503 | 84 | 0.0 | 0.0 | 0.00 | 0.00 | 0.00 | 17 | 1010.4 | |
| 20260507180100 | 84 | 0.0 | 0.0 | 0.00 | 0.00 | 0.00 | 18 | 1010.7 | |
| 20260507174555 | 81 | 0.0 | 0.0 | 0.00 | 0.00 | 0.00 | 21 | 1010.9 | |
| 20260507173055 | 80 | 0.0 | 0.0 | 0.00 | 0.00 | 0.00 | 22 | 1011.3 | |
| 20260507171554 | 78 | 0.0 | 0.0 | 0.00 | 0.00 | 0.00 | 22 | 1011.4 | |
| 20260507170045 | 78 | 0.0 | 0.0 | 0.00 | 0.00 | 0.00 | 22 | 1011.6 | |
| 20260507164542 | 77 | 0.0 | 0.0 | 0.00 | 0.00 | 0.00 | 25 | 1011.7 | |
| 20260507163039 | 75 | 0.0 | 0.0 | 0.00 | 0.00 | 0.00 | 26 | 1011.8 | |
| 20260507161534 | 74 | 0.0 | 0.0 | 0.00 | 0.00 | 0.00 | 28 | 1012.0 | |
| 20260507160035 | 73 | 0.0 | 0.0 | 0.00 | 0.00 | 0.00 | 28 | 1012.2 | |
| 20260507154530 | 72 | 0.0 | 0.0 | 0.00 | 0.00 | 0.00 | 32 | 1012.3 | |
| 20260507153031 | 70 | 0.0 | 0.0 | 0.00 | 0.00 | 0.00 | 36 | 1012.3 | |
| 20260507151522 | 68 | 0.0 | 0.0 | 0.00 | 0.00 | 0.00 | 39 | 1012.5 | |
| 20260507150017 | 66 | 0.0 | 0.0 | 0.00 | 0.00 | 0.00 | 40 | 1012.6 | |
| 20260507144514 | 65 | 0.0 | 0.0 | 0.00 | 0.00 | 0.00 | 44 | 1012.6 | |
| 20260507143009 | 61 | 0.0 | 0.0 | 0.00 | 0.00 | 0.00 | 52 | 1012.8 | |
| 20260507141506 | 59 | 0.0 | 0.0 | 0.00 | 0.00 | 0.00 | 58 | 1012.9 | |
| 20260507140002 | 58 | 0.0 | 0.0 | 0.00 | 0.00 | 0.00 | 60 | 1012.8 | |
| 20260507134502 | 57 | 0.0 | 0.0 | 0.00 | 0.00 | 0.00 | 59 | 1012.9 | |
| 20260507133100 | 55 | 0.0 | 0.0 | 0.00 | 0.00 | 0.00 | 61 | 1012.7 | |
| 20260507131602 | 52 | 0.0 | 0.0 | 0.00 | 0.00 | 0.00 | 69 | 1012.6 | |
| 20260507130053 | 50 | 0.0 | 0.0 | 0.00 | 0.00 | 0.00 | 72 | 1012.5 | |
| 20260507124551 | 49 | 0.0 | 0.0 | 0.00 | 0.00 | 0.00 | 76 | 1012.4 | |
| 20260507123049 | 49 | 0.0 | 0.0 | 0.00 | 0.00 | 0.00 | 76 | 1012.4 | |
| 20260507121547 | 49 | 0.0 | 0.0 | 0.00 | 0.00 | 0.00 | 75 | 1012.3 | |
| 20260507120044 | 49 | 0.0 | 0.0 | 0.00 | 0.00 | 0.00 | 74 | 1012.4 | |
| 20260507114543 | 50 | 0.0 | 0.0 | 0.00 | 0.00 | 0.00 | 73 | 1012.3 | |
| 20260507113042 | 51 | 0.0 | 0.0 | 0.00 | 0.00 | 0.00 | 69 | 1012.4 | |
| 20260507111544 | 52 | 0.0 | 0.0 | 0.00 | 0.00 | 0.00 | 66 | 1012.3 | |
| 20260507110036 | 52 | 0.0 | 0.0 | 0.00 | 0.00 | 0.00 | 64 | 1012.3 | |
| 20260507104535 | 52 | 0.0 | 0.0 | 0.00 | 0.00 | 0.00 | 66 | 1012.3 | |
| 20260507103035 | 52 | 0.0 | 0.0 | 0.00 | 0.00 | 0.00 | 69 | 1012.2 | |
| 20260507101552 | 52 | 0.0 | 0.0 | 0.00 | 0.00 | 0.00 | 69 | 1012.1 | |
| 20260507100033 | 53 | 0.0 | 0.0 | 0.00 | 0.00 | 0.00 | 67 | 1012.2 | |
| 20260507094525 | 53 | 0.0 | 0.0 | 0.00 | 0.00 | 0.00 | 66 | 1012.3 | |
| 20260507093026 | 55 | 0.0 | 0.0 | 0.00 | 0.00 | 0.00 | 60 | 1012.3 | |
| 20260507091544 | 57 | 0.0 | 0.0 | 0.00 | 0.00 | 0.00 | 50 | 1012.4 | |
| 20260507090017 | 57 | 0.0 | 0.0 | 0.00 | 0.00 | 0.00 | 51 | 1012.4 | |
| 20260507084517 | 57 | 0.0 | 0.0 | 0.00 | 0.00 | 0.00 | 52 | 1012.5 | |
| 20260507083020 | 55 | 0.0 | 0.0 | 0.00 | 0.00 | 0.00 | 61 | 1012.6 | |
| 20260507081514 | 55 | 0.0 | 0.0 | 0.00 | 0.00 | 0.00 | 62 | 1012.6 | |
| 20260507080010 | 56 | 0.0 | 0.0 | 0.00 | 0.00 | 0.00 | 63 | 1012.5 | |
| 20260507074510 | 56 | 0.0 | 0.0 | 0.00 | 0.00 | 0.00 | 60 | 1012.5 | |
| 20260507073003 | 58 | 0.0 | 0.0 | 0.00 | 0.00 | 0.00 | 55 | 1012.5 | |
| 20260507071601 | 60 | 0.0 | 0.0 | 0.00 | 0.00 | 0.00 | 47 | 1012.5 | |
| 20260507070137 | 60 | 0.0 | 0.0 | 0.00 | 0.00 | 0.00 | 46 | 1012.5 | |
| 20260507064555 | 60 | 0.0 | 0.0 | 0.00 | 0.00 | 0.00 | 50 | 1012.5 | |
| 20260507063100 | 59 | 0.0 | 0.0 | 0.00 | 0.00 | 0.00 | 55 | 1012.4 | |
| 20260507061554 | 59 | 0.0 | 0.0 | 0.00 | 0.00 | 0.00 | 54 | 1012.5 | |
| 20260507060052 | 60 | 0.0 | 0.0 | 0.00 | 0.00 | 0.00 | 51 | 1012.3 | |
| 20260507054556 | 61 | 0.0 | 0.0 | 0.00 | 0.00 | 0.00 | 48 | 1012.2 | |
| 20260507053054 | 61 | 0.0 | 0.0 | 0.00 | 0.00 | 0.00 | 47 | 1012.1 | |
| 20260507051552 | 61 | 0.0 | 0.0 | 0.00 | 0.00 | 0.00 | 49 | 1012.1 | |
| 20260507050050 | 63 | 0.0 | 0.0 | 0.00 | 0.00 | 0.00 | 43 | 1012.0 | |
| 20260507044550 | 63 | 0.0 | 0.0 | 0.00 | 0.00 | 0.00 | 41 | 1011.9 | |
| 20260507043050 | 64 | 0.0 | 0.0 | 0.00 | 0.00 | 0.00 | 40 | 1011.9 | |
| 20260507041550 | 64 | 0.0 | 0.0 | 0.00 | 0.00 | 0.00 | 37 | 1011.8 | |
| 20260507040051 | 66 | 0.0 | 0.0 | 0.00 | 0.00 | 0.00 | 34 | 1011.6 | |
| 20260507034550 | 67 | 0.0 | 0.0 | 0.00 | 0.00 | 0.00 | 30 | 1011.5 | |
| 20260507033048 | 69 | 0.0 | 0.0 | 0.00 | 0.00 | 0.00 | 27 | 1011.2 | |
| 20260507031547 | 70 | 0.0 | 0.0 | 0.00 | 0.00 | 0.00 | 25 | 1011.1 | |
| 20260507030047 | 71 | 0.0 | 0.0 | 0.00 | 0.00 | 0.00 | 25 | 1010.9 | |
| 20260507024545 | 72 | 0.0 | 0.0 | 0.00 | 0.00 | 0.00 | 25 | 1010.7 | |
| 20260507023044 | 72 | 0.0 | 0.0 | 0.00 | 0.00 | 0.00 | 24 | 1010.7 | |
| 20260507021546 | 73 | 0.0 | 0.0 | 0.00 | 0.00 | 0.00 | 24 | 1010.5 | |
| 20260507020048 | 74 | 0.0 | 0.0 | 0.00 | 0.00 | 0.00 | 23 | 1010.5 |